sensor_id;sensor_type;location;lat;lon;timestamp;P1;durP1;ratioP1;P2;durP2;ratioP2
6406;SDS011;3236;51.022;6.818;2022-10-22T00:00:04;15.63;;;8.07;;
6406;SDS011;3236;51.022;6.818;2022-10-22T00:02:38;16.10;;;8.00;;
6406;SDS011;3236;51.022;6.818;2022-10-22T00:05:06;16.40;;;8.38;;
6406;SDS011;3236;51.022;6.818;2022-10-22T00:07:33;19.10;;;8.27;;
6406;SDS011;3236;51.022;6.818;2022-10-22T00:10:04;16.92;;;8.32;;
6406;SDS011;3236;51.022;6.818;2022-10-22T00:12:34;16.55;;;8.13;;
6406;SDS011;3236;51.022;6.818;2022-10-22T00:15:02;16.08;;;9.70;;
6406;SDS011;3236;51.022;6.818;2022-10-22T00:17:29;17.95;;;9.10;;
6406;SDS011;3236;51.022;6.818;2022-10-22T00:19:56;18.08;;;9.18;;
6406;SDS011;3236;51.022;6.818;2022-10-22T00:22:23;16.05;;;8.90;;
6406;SDS011;3236;51.022;6.818;2022-10-22T00:24:50;24.10;;;9.15;;
6406;SDS011;3236;51.022;6.818;2022-10-22T00:27:17;20.05;;;10.02;;
6406;SDS011;3236;51.022;6.818;2022-10-22T00:29:46;20.20;;;9.70;;
6406;SDS011;3236;51.022;6.818;2022-10-22T00:32:13;23.17;;;8.93;;
6406;SDS011;3236;51.022;6.818;2022-10-22T00:34:44;15.02;;;8.40;;
6406;SDS011;3236;51.022;6.818;2022-10-22T00:37:11;18.83;;;8.57;;
6406;SDS011;3236;51.022;6.818;2022-10-22T00:39:38;24.98;;;8.82;;
6406;SDS011;3236;51.022;6.818;2022-10-22T00:42:05;19.08;;;8.93;;
6406;SDS011;3236;51.022;6.818;2022-10-22T00:47:40;16.48;;;8.27;;
6406;SDS011;3236;51.022;6.818;2022-10-22T00:50:10;14.85;;;8.15;;
6406;SDS011;3236;51.022;6.818;2022-10-22T00:52:42;16.52;;;8.98;;
6406;SDS011;3236;51.022;6.818;2022-10-22T00:55:10;14.57;;;8.07;;
6406;SDS011;3236;51.022;6.818;2022-10-22T00:57:38;16.83;;;8.25;;
6406;SDS011;3236;51.022;6.818;2022-10-22T01:00:10;16.70;;;8.57;;
6406;SDS011;3236;51.022;6.818;2022-10-22T01:02:38;14.30;;;8.05;;
6406;SDS011;3236;51.022;6.818;2022-10-22T01:05:06;20.35;;;8.38;;
6406;SDS011;3236;51.022;6.818;2022-10-22T01:07:34;13.40;;;7.93;;
6406;SDS011;3236;51.022;6.818;2022-10-22T01:10:07;15.73;;;7.35;;
6406;SDS011;3236;51.022;6.818;2022-10-22T01:12:44;20.23;;;8.43;;
6406;SDS011;3236;51.022;6.818;2022-10-22T01:15:19;16.90;;;8.45;;
6406;SDS011;3236;51.022;6.818;2022-10-22T01:17:54;17.08;;;9.55;;
6406;SDS011;3236;51.022;6.818;2022-10-22T01:20:32;12.43;;;8.77;;
6406;SDS011;3236;51.022;6.818;2022-10-22T01:26:20;22.00;;;9.63;;
6406;SDS011;3236;51.022;6.818;2022-10-22T01:28:57;17.13;;;10.45;;
6406;SDS011;3236;51.022;6.818;2022-10-22T01:31:28;18.75;;;9.98;;
6406;SDS011;3236;51.022;6.818;2022-10-22T01:33:59;19.00;;;9.75;;
6406;SDS011;3236;51.022;6.818;2022-10-22T01:36:28;15.52;;;9.85;;
6406;SDS011;3236;51.022;6.818;2022-10-22T01:38:57;17.83;;;10.82;;
6406;SDS011;3236;51.022;6.818;2022-10-22T01:41:27;31.30;;;10.50;;
6406;SDS011;3236;51.022;6.818;2022-10-22T01:43:58;24.83;;;8.43;;
6406;SDS011;3236;51.022;6.818;2022-10-22T01:46:26;17.02;;;9.48;;
6406;SDS011;3236;51.022;6.818;2022-10-22T01:48:58;18.80;;;8.70;;
6406;SDS011;3236;51.022;6.818;2022-10-22T01:51:44;20.55;;;8.93;;
6406;SDS011;3236;51.022;6.818;2022-10-22T01:54:20;24.55;;;8.93;;
6406;SDS011;3236;51.022;6.818;2022-10-22T01:56:58;21.35;;;8.95;;
6406;SDS011;3236;51.022;6.818;2022-10-22T01:59:40;16.63;;;8.30;;
6406;SDS011;3236;51.022;6.818;2022-10-22T02:02:15;15.23;;;8.25;;
6406;SDS011;3236;51.022;6.818;2022-10-22T02:04:51;16.60;;;8.93;;
6406;SDS011;3236;51.022;6.818;2022-10-22T02:07:25;18.27;;;9.10;;
6406;SDS011;3236;51.022;6.818;2022-10-22T02:09:56;14.75;;;8.45;;
6406;SDS011;3236;51.022;6.818;2022-10-22T02:12:26;13.75;;;8.32;;
6406;SDS011;3236;51.022;6.818;2022-10-22T02:14:57;16.15;;;8.27;;
6406;SDS011;3236;51.022;6.818;2022-10-22T02:17:27;14.73;;;8.75;;
6406;SDS011;3236;51.022;6.818;2022-10-22T02:20:00;18.23;;;8.50;;
6406;SDS011;3236;51.022;6.818;2022-10-22T02:22:31;18.77;;;8.98;;
6406;SDS011;3236;51.022;6.818;2022-10-22T02:25:01;27.88;;;9.40;;
6406;SDS011;3236;51.022;6.818;2022-10-22T02:27:29;14.98;;;8.85;;
6406;SDS011;3236;51.022;6.818;2022-10-22T02:30:04;19.60;;;9.00;;
6406;SDS011;3236;51.022;6.818;2022-10-22T02:32:34;18.52;;;9.25;;
6406;SDS011;3236;51.022;6.818;2022-10-22T02:35:07;16.10;;;9.05;;
6406;SDS011;3236;51.022;6.818;2022-10-22T02:37:38;15.75;;;8.73;;
6406;SDS011;3236;51.022;6.818;2022-10-22T02:40:06;21.10;;;10.02;;
6406;SDS011;3236;51.022;6.818;2022-10-22T02:45:13;19.17;;;9.23;;
6406;SDS011;3236;51.022;6.818;2022-10-22T02:47:44;20.30;;;9.73;;
6406;SDS011;3236;51.022;6.818;2022-10-22T02:50:14;13.00;;;9.23;;
6406;SDS011;3236;51.022;6.818;2022-10-22T02:52:43;19.33;;;9.65;;
6406;SDS011;3236;51.022;6.818;2022-10-22T02:55:11;18.15;;;9.85;;
6406;SDS011;3236;51.022;6.818;2022-10-22T02:57:38;25.98;;;10.15;;
6406;SDS011;3236;51.022;6.818;2022-10-22T03:00:07;19.85;;;10.57;;
6406;SDS011;3236;51.022;6.818;2022-10-22T03:02:37;23.20;;;10.93;;
6406;SDS011;3236;51.022;6.818;2022-10-22T03:05:05;21.75;;;10.57;;
6406;SDS011;3236;51.022;6.818;2022-10-22T03:07:33;19.95;;;9.90;;
6406;SDS011;3236;51.022;6.818;2022-10-22T03:10:00;18.73;;;10.27;;
6406;SDS011;3236;51.022;6.818;2022-10-22T03:12:27;20.60;;;11.23;;
6406;SDS011;3236;51.022;6.818;2022-10-22T03:14:54;21.30;;;11.65;;
6406;SDS011;3236;51.022;6.818;2022-10-22T03:17:21;22.92;;;11.88;;
6406;SDS011;3236;51.022;6.818;2022-10-22T03:19:59;26.63;;;11.13;;
6406;SDS011;3236;51.022;6.818;2022-10-22T03:22:27;26.77;;;11.23;;
6406;SDS011;3236;51.022;6.818;2022-10-22T03:24:58;20.95;;;11.60;;
6406;SDS011;3236;51.022;6.818;2022-10-22T03:27:29;28.15;;;12.05;;
6406;SDS011;3236;51.022;6.818;2022-10-22T03:29:57;37.38;;;13.00;;
6406;SDS011;3236;51.022;6.818;2022-10-22T03:32:25;24.35;;;11.70;;
6406;SDS011;3236;51.022;6.818;2022-10-22T03:34:56;26.23;;;12.60;;
6406;SDS011;3236;51.022;6.818;2022-10-22T03:37:24;20.67;;;11.60;;
6406;SDS011;3236;51.022;6.818;2022-10-22T03:39:52;23.35;;;11.50;;
6406;SDS011;3236;51.022;6.818;2022-10-22T03:42:20;19.38;;;11.35;;
6406;SDS011;3236;51.022;6.818;2022-10-22T03:44:48;25.70;;;11.77;;
6406;SDS011;3236;51.022;6.818;2022-10-22T03:47:19;21.10;;;11.20;;
6406;SDS011;3236;51.022;6.818;2022-10-22T03:49:48;22.15;;;11.65;;
6406;SDS011;3236;51.022;6.818;2022-10-22T03:52:18;27.38;;;12.40;;
6406;SDS011;3236;51.022;6.818;2022-10-22T03:54:47;29.00;;;11.68;;
6406;SDS011;3236;51.022;6.818;2022-10-22T03:57:14;27.75;;;11.70;;
6406;SDS011;3236;51.022;6.818;2022-10-22T03:59:41;20.90;;;11.48;;
6406;SDS011;3236;51.022;6.818;2022-10-22T04:02:12;26.38;;;12.20;;
6406;SDS011;3236;51.022;6.818;2022-10-22T04:04:39;27.02;;;12.00;;
6406;SDS011;3236;51.022;6.818;2022-10-22T04:07:06;20.17;;;11.98;;
6406;SDS011;3236;51.022;6.818;2022-10-22T04:09:33;21.65;;;10.55;;
6406;SDS011;3236;51.022;6.818;2022-10-22T04:12:03;26.25;;;10.60;;
6406;SDS011;3236;51.022;6.818;2022-10-22T04:14:32;23.40;;;11.60;;
6406;SDS011;3236;51.022;6.818;2022-10-22T04:16:59;26.75;;;11.45;;
6406;SDS011;3236;51.022;6.818;2022-10-22T04:19:26;21.98;;;11.82;;
6406;SDS011;3236;51.022;6.818;2022-10-22T04:21:56;23.70;;;12.35;;
6406;SDS011;3236;51.022;6.818;2022-10-22T04:24:23;33.03;;;11.15;;
6406;SDS011;3236;51.022;6.818;2022-10-22T04:26:52;21.52;;;11.45;;
6406;SDS011;3236;51.022;6.818;2022-10-22T04:29:20;20.48;;;11.77;;
6406;SDS011;3236;51.022;6.818;2022-10-22T04:31:54;22.85;;;11.50;;
6406;SDS011;3236;51.022;6.818;2022-10-22T04:34:21;29.42;;;11.65;;
6406;SDS011;3236;51.022;6.818;2022-10-22T04:36:49;28.70;;;12.68;;
6406;SDS011;3236;51.022;6.818;2022-10-22T04:39:19;28.27;;;12.17;;
6406;SDS011;3236;51.022;6.818;2022-10-22T04:41:46;32.90;;;12.55;;
6406;SDS011;3236;51.022;6.818;2022-10-22T04:44:13;31.67;;;12.50;;
6406;SDS011;3236;51.022;6.818;2022-10-22T04:46:44;26.50;;;12.95;;
6406;SDS011;3236;51.022;6.818;2022-10-22T04:49:11;25.38;;;12.95;;
6406;SDS011;3236;51.022;6.818;2022-10-22T04:51:38;39.22;;;13.38;;
6406;SDS011;3236;51.022;6.818;2022-10-22T04:54:06;27.90;;;11.95;;
6406;SDS011;3236;51.022;6.818;2022-10-22T04:56:33;25.75;;;11.82;;
6406;SDS011;3236;51.022;6.818;2022-10-22T04:59:00;26.40;;;11.32;;
6406;SDS011;3236;51.022;6.818;2022-10-22T05:01:30;23.33;;;12.00;;
6406;SDS011;3236;51.022;6.818;2022-10-22T05:04:04;27.33;;;13.20;;
6406;SDS011;3236;51.022;6.818;2022-10-22T05:06:33;26.20;;;13.07;;
6406;SDS011;3236;51.022;6.818;2022-10-22T05:09:04;32.75;;;13.27;;
6406;SDS011;3236;51.022;6.818;2022-10-22T05:11:35;35.20;;;14.57;;
6406;SDS011;3236;51.022;6.818;2022-10-22T05:14:06;42.33;;;16.42;;
6406;SDS011;3236;51.022;6.818;2022-10-22T05:16:34;37.92;;;15.30;;
6406;SDS011;3236;51.022;6.818;2022-10-22T05:19:06;37.25;;;15.55;;
6406;SDS011;3236;51.022;6.818;2022-10-22T05:21:36;47.67;;;15.70;;
6406;SDS011;3236;51.022;6.818;2022-10-22T05:24:04;33.30;;;14.52;;
6406;SDS011;3236;51.022;6.818;2022-10-22T05:26:31;34.97;;;14.40;;
6406;SDS011;3236;51.022;6.818;2022-10-22T05:28:59;37.05;;;15.48;;
6406;SDS011;3236;51.022;6.818;2022-10-22T05:31:27;35.42;;;14.10;;
6406;SDS011;3236;51.022;6.818;2022-10-22T05:33:54;33.28;;;14.02;;
6406;SDS011;3236;51.022;6.818;2022-10-22T05:36:23;36.05;;;14.45;;
6406;SDS011;3236;51.022;6.818;2022-10-22T05:38:50;42.45;;;14.75;;
6406;SDS011;3236;51.022;6.818;2022-10-22T05:41:17;35.88;;;14.35;;
6406;SDS011;3236;51.022;6.818;2022-10-22T05:43:45;34.58;;;14.60;;
6406;SDS011;3236;51.022;6.818;2022-10-22T05:46:14;43.42;;;15.13;;
6406;SDS011;3236;51.022;6.818;2022-10-22T05:48:46;37.60;;;15.07;;
6406;SDS011;3236;51.022;6.818;2022-10-22T05:51:16;35.40;;;15.73;;
6406;SDS011;3236;51.022;6.818;2022-10-22T05:53:45;47.55;;;14.38;;
6406;SDS011;3236;51.022;6.818;2022-10-22T05:56:17;42.55;;;14.48;;
6406;SDS011;3236;51.022;6.818;2022-10-22T05:58:44;32.45;;;13.15;;
6406;SDS011;3236;51.022;6.818;2022-10-22T06:01:13;38.85;;;14.25;;
6406;SDS011;3236;51.022;6.818;2022-10-22T06:03:41;35.15;;;13.32;;
6406;SDS011;3236;51.022;6.818;2022-10-22T06:06:13;32.15;;;13.60;;
6406;SDS011;3236;51.022;6.818;2022-10-22T06:08:46;31.13;;;13.48;;
6406;SDS011;3236;51.022;6.818;2022-10-22T06:11:14;33.40;;;15.85;;
6406;SDS011;3236;51.022;6.818;2022-10-22T06:13:42;38.17;;;14.10;;
6406;SDS011;3236;51.022;6.818;2022-10-22T06:16:10;35.25;;;14.52;;
6406;SDS011;3236;51.022;6.818;2022-10-22T06:18:37;36.92;;;14.90;;
6406;SDS011;3236;51.022;6.818;2022-10-22T06:21:04;39.47;;;15.75;;
6406;SDS011;3236;51.022;6.818;2022-10-22T06:23:32;50.65;;;17.95;;
6406;SDS011;3236;51.022;6.818;2022-10-22T06:26:01;41.90;;;15.98;;
6406;SDS011;3236;51.022;6.818;2022-10-22T06:28:29;40.80;;;15.35;;
6406;SDS011;3236;51.022;6.818;2022-10-22T06:30:56;37.45;;;15.10;;
6406;SDS011;3236;51.022;6.818;2022-10-22T06:33:27;37.50;;;15.50;;
6406;SDS011;3236;51.022;6.818;2022-10-22T06:36:02;30.77;;;14.40;;
6406;SDS011;3236;51.022;6.818;2022-10-22T06:38:30;39.67;;;15.48;;
6406;SDS011;3236;51.022;6.818;2022-10-22T06:41:02;39.28;;;15.98;;
6406;SDS011;3236;51.022;6.818;2022-10-22T06:43:30;39.30;;;15.15;;
6406;SDS011;3236;51.022;6.818;2022-10-22T06:45:58;41.22;;;15.57;;
6406;SDS011;3236;51.022;6.818;2022-10-22T06:48:25;45.38;;;16.08;;
6406;SDS011;3236;51.022;6.818;2022-10-22T06:50:53;46.80;;;16.88;;
6406;SDS011;3236;51.022;6.818;2022-10-22T06:53:20;42.28;;;16.23;;
6406;SDS011;3236;51.022;6.818;2022-10-22T06:55:48;44.20;;;16.02;;
6406;SDS011;3236;51.022;6.818;2022-10-22T06:58:17;46.50;;;17.23;;
6406;SDS011;3236;51.022;6.818;2022-10-22T07:00:44;51.97;;;16.40;;
6406;SDS011;3236;51.022;6.818;2022-10-22T07:03:11;44.08;;;16.13;;
6406;SDS011;3236;51.022;6.818;2022-10-22T07:05:39;45.38;;;16.40;;
6406;SDS011;3236;51.022;6.818;2022-10-22T07:08:09;41.70;;;16.48;;
6406;SDS011;3236;51.022;6.818;2022-10-22T07:10:36;43.92;;;16.55;;
6406;SDS011;3236;51.022;6.818;2022-10-22T07:13:04;37.15;;;16.52;;
6406;SDS011;3236;51.022;6.818;2022-10-22T07:15:32;34.67;;;15.60;;
6406;SDS011;3236;51.022;6.818;2022-10-22T07:17:59;48.75;;;17.88;;
6406;SDS011;3236;51.022;6.818;2022-10-22T07:20:28;36.38;;;15.73;;
6406;SDS011;3236;51.022;6.818;2022-10-22T07:22:55;26.35;;;13.93;;
6406;SDS011;3236;51.022;6.818;2022-10-22T07:25:23;31.17;;;14.55;;
6406;SDS011;3236;51.022;6.818;2022-10-22T07:27:51;31.48;;;14.10;;
6406;SDS011;3236;51.022;6.818;2022-10-22T07:30:18;28.50;;;12.18;;
6406;SDS011;3236;51.022;6.818;2022-10-22T07:32:47;17.58;;;11.10;;
6406;SDS011;3236;51.022;6.818;2022-10-22T07:35:17;22.13;;;11.18;;
6406;SDS011;3236;51.022;6.818;2022-10-22T07:37:44;19.25;;;9.05;;
6406;SDS011;3236;51.022;6.818;2022-10-22T07:40:11;17.90;;;9.80;;
6406;SDS011;3236;51.022;6.818;2022-10-22T07:42:38;16.05;;;7.28;;
6406;SDS011;3236;51.022;6.818;2022-10-22T07:45:06;22.75;;;7.97;;
6406;SDS011;3236;51.022;6.818;2022-10-22T07:47:34;14.13;;;6.13;;
6406;SDS011;3236;51.022;6.818;2022-10-22T07:50:03;15.23;;;5.97;;
6406;SDS011;3236;51.022;6.818;2022-10-22T07:52:31;11.20;;;6.15;;
6406;SDS011;3236;51.022;6.818;2022-10-22T07:54:59;14.25;;;6.72;;
6406;SDS011;3236;51.022;6.818;2022-10-22T07:57:26;14.18;;;6.18;;
6406;SDS011;3236;51.022;6.818;2022-10-22T07:59:53;19.35;;;6.20;;
6406;SDS011;3236;51.022;6.818;2022-10-22T08:02:22;9.73;;;4.70;;
6406;SDS011;3236;51.022;6.818;2022-10-22T08:04:49;8.05;;;4.82;;
6406;SDS011;3236;51.022;6.818;2022-10-22T08:07:24;12.45;;;5.38;;
6406;SDS011;3236;51.022;6.818;2022-10-22T08:09:54;11.98;;;5.22;;
6406;SDS011;3236;51.022;6.818;2022-10-22T08:12:21;11.73;;;4.60;;
6406;SDS011;3236;51.022;6.818;2022-10-22T08:14:48;7.65;;;4.80;;
6406;SDS011;3236;51.022;6.818;2022-10-22T08:17:16;15.07;;;4.85;;
6406;SDS011;3236;51.022;6.818;2022-10-22T08:19:43;10.18;;;4.70;;
6406;SDS011;3236;51.022;6.818;2022-10-22T08:22:10;10.63;;;4.22;;
6406;SDS011;3236;51.022;6.818;2022-10-22T08:24:39;10.25;;;4.50;;
6406;SDS011;3236;51.022;6.818;2022-10-22T08:27:06;16.23;;;4.53;;
6406;SDS011;3236;51.022;6.818;2022-10-22T08:29:37;13.20;;;3.92;;
6406;SDS011;3236;51.022;6.818;2022-10-22T08:32:04;8.83;;;4.27;;
6406;SDS011;3236;51.022;6.818;2022-10-22T08:34:31;10.68;;;3.63;;
6406;SDS011;3236;51.022;6.818;2022-10-22T08:36:58;12.52;;;3.97;;
6406;SDS011;3236;51.022;6.818;2022-10-22T08:39:26;9.20;;;4.10;;
6406;SDS011;3236;51.022;6.818;2022-10-22T08:41:57;10.93;;;4.20;;
6406;SDS011;3236;51.022;6.818;2022-10-22T08:44:39;6.03;;;3.03;;
6406;SDS011;3236;51.022;6.818;2022-10-22T08:47:24;11.63;;;2.40;;
6406;SDS011;3236;51.022;6.818;2022-10-22T08:50:03;5.22;;;2.40;;
6406;SDS011;3236;51.022;6.818;2022-10-22T08:52:31;9.32;;;3.17;;
6406;SDS011;3236;51.022;6.818;2022-10-22T08:55:01;7.25;;;2.55;;
6406;SDS011;3236;51.022;6.818;2022-10-22T08:57:39;4.70;;;1.80;;
6406;SDS011;3236;51.022;6.818;2022-10-22T09:00:17;8.27;;;2.42;;
6406;SDS011;3236;51.022;6.818;2022-10-22T09:02:51;7.97;;;2.33;;
6406;SDS011;3236;51.022;6.818;2022-10-22T09:05:32;7.05;;;1.52;;
6406;SDS011;3236;51.022;6.818;2022-10-22T09:08:08;3.80;;;2.00;;
6406;SDS011;3236;51.022;6.818;2022-10-22T09:10:37;4.68;;;2.10;;
6406;SDS011;3236;51.022;6.818;2022-10-22T09:13:10;3.67;;;1.75;;
6406;SDS011;3236;51.022;6.818;2022-10-22T09:15:39;8.57;;;1.83;;
6406;SDS011;3236;51.022;6.818;2022-10-22T09:18:10;7.00;;;2.10;;
6406;SDS011;3236;51.022;6.818;2022-10-22T09:20:49;5.72;;;1.90;;
6406;SDS011;3236;51.022;6.818;2022-10-22T09:23:23;5.55;;;1.77;;
6406;SDS011;3236;51.022;6.818;2022-10-22T09:25:57;6.50;;;1.98;;
6406;SDS011;3236;51.022;6.818;2022-10-22T09:28:26;7.07;;;2.13;;
6406;SDS011;3236;51.022;6.818;2022-10-22T09:30:54;11.98;;;2.25;;
6406;SDS011;3236;51.022;6.818;2022-10-22T09:33:23;6.93;;;1.52;;
6406;SDS011;3236;51.022;6.818;2022-10-22T09:35:52;5.43;;;1.27;;
6406;SDS011;3236;51.022;6.818;2022-10-22T09:38:20;3.08;;;1.33;;
6406;SDS011;3236;51.022;6.818;2022-10-22T09:40:51;3.33;;;1.20;;
6406;SDS011;3236;51.022;6.818;2022-10-22T09:43:20;10.70;;;1.48;;
6406;SDS011;3236;51.022;6.818;2022-10-22T09:45:54;3.50;;;1.33;;
6406;SDS011;3236;51.022;6.818;2022-10-22T09:48:26;2.67;;;0.95;;
6406;SDS011;3236;51.022;6.818;2022-10-22T09:50:58;12.32;;;1.70;;
6406;SDS011;3236;51.022;6.818;2022-10-22T09:53:30;3.65;;;1.20;;
6406;SDS011;3236;51.022;6.818;2022-10-22T09:56:06;9.82;;;2.58;;
6406;SDS011;3236;51.022;6.818;2022-10-22T09:58:39;5.10;;;1.35;;
6406;SDS011;3236;51.022;6.818;2022-10-22T10:01:15;6.32;;;1.88;;
6406;SDS011;3236;51.022;6.818;2022-10-22T10:03:47;7.22;;;1.80;;
6406;SDS011;3236;51.022;6.818;2022-10-22T10:06:16;5.28;;;1.20;;
6406;SDS011;3236;51.022;6.818;2022-10-22T10:08:44;8.55;;;1.60;;
6406;SDS011;3236;51.022;6.818;2022-10-22T10:11:13;7.32;;;1.95;;
6406;SDS011;3236;51.022;6.818;2022-10-22T10:13:53;6.97;;;1.33;;
6406;SDS011;3236;51.022;6.818;2022-10-22T10:19:10;4.22;;;1.30;;
6406;SDS011;3236;51.022;6.818;2022-10-22T10:21:55;9.77;;;1.40;;
6406;SDS011;3236;51.022;6.818;2022-10-22T10:24:30;8.57;;;1.25;;
6406;SDS011;3236;51.022;6.818;2022-10-22T10:27:07;3.90;;;1.17;;
6406;SDS011;3236;51.022;6.818;2022-10-22T10:29:40;6.57;;;1.00;;
6406;SDS011;3236;51.022;6.818;2022-10-22T10:32:20;3.42;;;1.05;;
6406;SDS011;3236;51.022;6.818;2022-10-22T10:34:57;4.22;;;1.35;;
6406;SDS011;3236;51.022;6.818;2022-10-22T10:37:35;9.15;;;1.20;;
6406;SDS011;3236;51.022;6.818;2022-10-22T10:40:15;4.80;;;1.10;;
6406;SDS011;3236;51.022;6.818;2022-10-22T10:42:51;5.75;;;1.00;;
6406;SDS011;3236;51.022;6.818;2022-10-22T10:45:23;6.35;;;1.30;;
6406;SDS011;3236;51.022;6.818;2022-10-22T10:48:21;3.80;;;1.23;;
6406;SDS011;3236;51.022;6.818;2022-10-22T10:51:06;11.23;;;1.63;;
6406;SDS011;3236;51.022;6.818;2022-10-22T10:53:50;6.25;;;1.35;;
6406;SDS011;3236;51.022;6.818;2022-10-22T10:56:32;7.82;;;1.52;;
6406;SDS011;3236;51.022;6.818;2022-10-22T10:59:11;4.88;;;1.15;;
6406;SDS011;3236;51.022;6.818;2022-10-22T11:01:47;8.65;;;2.28;;
6406;SDS011;3236;51.022;6.818;2022-10-22T11:04:54;11.38;;;1.63;;
6406;SDS011;3236;51.022;6.818;2022-10-22T11:07:33;7.95;;;1.95;;
6406;SDS011;3236;51.022;6.818;2022-10-22T11:10:08;7.88;;;1.15;;
6406;SDS011;3236;51.022;6.818;2022-10-22T11:12:38;7.30;;;1.37;;
6406;SDS011;3236;51.022;6.818;2022-10-22T11:15:11;9.68;;;2.15;;
6406;SDS011;3236;51.022;6.818;2022-10-22T11:17:48;5.80;;;1.08;;
6406;SDS011;3236;51.022;6.818;2022-10-22T11:20:17;4.40;;;1.20;;
6406;SDS011;3236;51.022;6.818;2022-10-22T11:22:53;3.20;;;1.23;;
6406;SDS011;3236;51.022;6.818;2022-10-22T11:25:32;7.45;;;1.30;;
6406;SDS011;3236;51.022;6.818;2022-10-22T11:28:04;2.97;;;1.17;;
6406;SDS011;3236;51.022;6.818;2022-10-22T11:30:37;8.30;;;1.20;;
6406;SDS011;3236;51.022;6.818;2022-10-22T11:33:10;7.75;;;1.23;;
6406;SDS011;3236;51.022;6.818;2022-10-22T11:35:44;6.45;;;1.30;;
6406;SDS011;3236;51.022;6.818;2022-10-22T11:38:13;6.05;;;1.30;;
6406;SDS011;3236;51.022;6.818;2022-10-22T11:40:44;9.30;;;2.25;;
6406;SDS011;3236;51.022;6.818;2022-10-22T11:43:25;4.13;;;0.98;;
6406;SDS011;3236;51.022;6.818;2022-10-22T11:46:05;6.50;;;0.90;;
6406;SDS011;3236;51.022;6.818;2022-10-22T11:49:00;10.95;;;1.77;;
6406;SDS011;3236;51.022;6.818;2022-10-22T11:51:33;6.20;;;1.17;;
6406;SDS011;3236;51.022;6.818;2022-10-22T11:56:50;10.20;;;1.58;;
6406;SDS011;3236;51.022;6.818;2022-10-22T11:59:33;6.85;;;1.00;;
6406;SDS011;3236;51.022;6.818;2022-10-22T12:02:21;3.13;;;1.00;;
6406;SDS011;3236;51.022;6.818;2022-10-22T12:08:00;6.00;;;1.38;;
6406;SDS011;3236;51.022;6.818;2022-10-22T12:13:52;5.13;;;1.27;;
6406;SDS011;3236;51.022;6.818;2022-10-22T12:16:41;4.97;;;1.20;;
6406;SDS011;3236;51.022;6.818;2022-10-22T12:19:11;8.65;;;1.80;;
6406;SDS011;3236;51.022;6.818;2022-10-22T12:21:42;4.53;;;1.02;;
6406;SDS011;3236;51.022;6.818;2022-10-22T12:24:13;7.00;;;1.60;;
6406;SDS011;3236;51.022;6.818;2022-10-22T12:26:42;3.58;;;1.63;;
6406;SDS011;3236;51.022;6.818;2022-10-22T12:29:20;6.05;;;1.17;;
6406;SDS011;3236;51.022;6.818;2022-10-22T12:31:50;5.32;;;1.40;;
6406;SDS011;3236;51.022;6.818;2022-10-22T12:34:19;11.82;;;1.48;;
6406;SDS011;3236;51.022;6.818;2022-10-22T12:36:53;3.05;;;1.02;;
6406;SDS011;3236;51.022;6.818;2022-10-22T12:39:24;8.02;;;1.30;;
6406;SDS011;3236;51.022;6.818;2022-10-22T12:41:53;7.07;;;1.30;;
6406;SDS011;3236;51.022;6.818;2022-10-22T12:44:20;4.40;;;1.23;;
6406;SDS011;3236;51.022;6.818;2022-10-22T12:46:51;3.08;;;1.23;;
6406;SDS011;3236;51.022;6.818;2022-10-22T12:49:20;5.80;;;0.80;;
6406;SDS011;3236;51.022;6.818;2022-10-22T12:52:02;4.22;;;1.10;;
6406;SDS011;3236;51.022;6.818;2022-10-22T12:54:36;3.10;;;0.95;;
6406;SDS011;3236;51.022;6.818;2022-10-22T12:57:09;5.05;;;1.15;;
6406;SDS011;3236;51.022;6.818;2022-10-22T12:59:38;6.55;;;1.30;;
6406;SDS011;3236;51.022;6.818;2022-10-22T13:02:10;6.78;;;0.93;;
6406;SDS011;3236;51.022;6.818;2022-10-22T13:07:42;5.93;;;1.17;;
6406;SDS011;3236;51.022;6.818;2022-10-22T13:10:22;4.07;;;0.75;;
6406;SDS011;3236;51.022;6.818;2022-10-22T13:12:53;3.20;;;0.68;;
6406;SDS011;3236;51.022;6.818;2022-10-22T13:15:34;4.32;;;0.90;;
6406;SDS011;3236;51.022;6.818;2022-10-22T13:18:05;4.03;;;1.00;;
6406;SDS011;3236;51.022;6.818;2022-10-22T13:20:51;3.78;;;1.25;;
6406;SDS011;3236;51.022;6.818;2022-10-22T13:23:21;4.22;;;1.00;;
6406;SDS011;3236;51.022;6.818;2022-10-22T13:26:02;4.00;;;1.15;;
6406;SDS011;3236;51.022;6.818;2022-10-22T13:28:48;5.88;;;0.60;;
6406;SDS011;3236;51.022;6.818;2022-10-22T13:31:20;3.08;;;0.93;;
6406;SDS011;3236;51.022;6.818;2022-10-22T13:33:54;2.30;;;0.80;;
6406;SDS011;3236;51.022;6.818;2022-10-22T13:36:23;2.33;;;1.13;;
6406;SDS011;3236;51.022;6.818;2022-10-22T13:38:50;7.25;;;1.35;;
6406;SDS011;3236;51.022;6.818;2022-10-22T13:41:20;8.90;;;1.20;;
6406;SDS011;3236;51.022;6.818;2022-10-22T13:43:49;4.20;;;1.13;;
6406;SDS011;3236;51.022;6.818;2022-10-22T13:46:17;7.65;;;1.10;;
6406;SDS011;3236;51.022;6.818;2022-10-22T13:48:46;4.78;;;1.25;;
6406;SDS011;3236;51.022;6.818;2022-10-22T13:51:17;5.80;;;1.17;;
6406;SDS011;3236;51.022;6.818;2022-10-22T13:53:45;5.07;;;1.25;;
6406;SDS011;3236;51.022;6.818;2022-10-22T13:56:15;3.90;;;1.05;;
6406;SDS011;3236;51.022;6.818;2022-10-22T13:58:45;5.05;;;1.67;;
6406;SDS011;3236;51.022;6.818;2022-10-22T14:01:15;3.38;;;0.80;;
6406;SDS011;3236;51.022;6.818;2022-10-22T14:03:46;5.18;;;1.05;;
6406;SDS011;3236;51.022;6.818;2022-10-22T14:06:15;6.32;;;1.25;;
6406;SDS011;3236;51.022;6.818;2022-10-22T14:08:47;5.63;;;0.90;;
6406;SDS011;3236;51.022;6.818;2022-10-22T14:11:26;4.25;;;0.77;;
6406;SDS011;3236;51.022;6.818;2022-10-22T14:13:56;7.78;;;1.60;;
6406;SDS011;3236;51.022;6.818;2022-10-22T14:16:24;4.60;;;1.00;;
6406;SDS011;3236;51.022;6.818;2022-10-22T14:19:01;3.65;;;0.98;;
6406;SDS011;3236;51.022;6.818;2022-10-22T14:21:29;3.85;;;1.00;;
6406;SDS011;3236;51.022;6.818;2022-10-22T14:23:59;5.13;;;1.17;;
6406;SDS011;3236;51.022;6.818;2022-10-22T14:26:28;4.10;;;0.90;;
6406;SDS011;3236;51.022;6.818;2022-10-22T14:29:00;6.97;;;1.35;;
6406;SDS011;3236;51.022;6.818;2022-10-22T14:31:28;6.63;;;1.10;;
6406;SDS011;3236;51.022;6.818;2022-10-22T14:33:56;3.40;;;0.93;;
6406;SDS011;3236;51.022;6.818;2022-10-22T14:36:24;5.22;;;0.98;;
6406;SDS011;3236;51.022;6.818;2022-10-22T14:38:52;2.72;;;1.33;;
6406;SDS011;3236;51.022;6.818;2022-10-22T14:41:20;3.58;;;0.93;;
6406;SDS011;3236;51.022;6.818;2022-10-22T14:43:48;2.00;;;0.90;;
6406;SDS011;3236;51.022;6.818;2022-10-22T14:46:17;4.95;;;1.08;;
6406;SDS011;3236;51.022;6.818;2022-10-22T14:48:45;12.30;;;4.60;;
6406;SDS011;3236;51.022;6.818;2022-10-22T14:51:16;3.65;;;1.13;;
6406;SDS011;3236;51.022;6.818;2022-10-22T14:53:44;4.13;;;1.17;;
6406;SDS011;3236;51.022;6.818;2022-10-22T14:56:12;4.82;;;1.20;;
6406;SDS011;3236;51.022;6.818;2022-10-22T14:58:42;4.23;;;1.23;;
6406;SDS011;3236;51.022;6.818;2022-10-22T15:01:09;9.10;;;2.55;;
6406;SDS011;3236;51.022;6.818;2022-10-22T15:03:38;4.13;;;1.63;;
6406;SDS011;3236;51.022;6.818;2022-10-22T15:06:05;7.40;;;1.83;;
6406;SDS011;3236;51.022;6.818;2022-10-22T15:08:33;7.47;;;1.88;;
6406;SDS011;3236;51.022;6.818;2022-10-22T15:11:01;6.07;;;1.30;;
6406;SDS011;3236;51.022;6.818;2022-10-22T15:13:30;6.63;;;1.83;;
6406;SDS011;3236;51.022;6.818;2022-10-22T15:15:58;6.22;;;1.50;;
6406;SDS011;3236;51.022;6.818;2022-10-22T15:18:28;8.25;;;2.25;;
6406;SDS011;3236;51.022;6.818;2022-10-22T15:20:57;4.20;;;1.38;;
6406;SDS011;3236;51.022;6.818;2022-10-22T15:23:25;3.90;;;1.48;;
6406;SDS011;3236;51.022;6.818;2022-10-22T15:25:53;1.98;;;1.00;;
6406;SDS011;3236;51.022;6.818;2022-10-22T15:28:20;3.50;;;1.02;;
6406;SDS011;3236;51.022;6.818;2022-10-22T15:30:51;6.93;;;1.33;;
6406;SDS011;3236;51.022;6.818;2022-10-22T15:33:19;10.50;;;3.05;;
6406;SDS011;3236;51.022;6.818;2022-10-22T15:35:46;11.15;;;3.63;;
6406;SDS011;3236;51.022;6.818;2022-10-22T15:38:15;4.38;;;1.83;;
6406;SDS011;3236;51.022;6.818;2022-10-22T15:40:43;7.78;;;2.17;;
6406;SDS011;3236;51.022;6.818;2022-10-22T15:43:10;12.88;;;1.50;;
6406;SDS011;3236;51.022;6.818;2022-10-22T15:45:37;2.08;;;1.10;;
6406;SDS011;3236;51.022;6.818;2022-10-22T15:48:05;4.18;;;1.40;;